Airfield :
LOGIN :

Register | Disclaimer

   EN    FR    IT 

 










Legend :    VFR   Marginal VFR   IFR   Intensive IFR   Very Intensive IFR
Visi :
Ceiling :
>= 8 km
>= 3000ft
5 to 8 km
1000 to 3000 ft
1500m to 5 km
500 to 1000 ft
800 to 1500m
200 to 500 ft
< 800m
< 200 ft
Symbols :   Thunderstorms  Fog  Heavy snow  Heavy precipitations  Wind > 20 kt
SIGMETs :     Misc.  Thunderstorms  Icing  Turbulence  Mountain Waves  Volcanic Ashes






- Airport Elevation : 79 ft
- IATA code : SPU


LDSP - Split

CURRENT METAR :
  • 050800Z 01005KT 300V100 4000 +TSRA FEW010CB BKN018 OVC025 12/11 Q1003 BECMG TSRA TEMPO 10015KT 2500

EXPIRED METARs :
  • 050730Z 03005KT 340V090 9999 -RA FEW015 BKN018 OVC025 12/10 Q1003 TEMPO TSRA FEW017CB BKN020
  • 050700Z 35007KT 320V050 9999 FEW012 BKN018 OVC025 11/10 Q1003 NOSIG
  • 050630Z 04010KT 010V100 9999 -TSRA SCT008CB BKN018 OVC025 11/10 Q1003 BECMG 11012KT NSW SCT020 BKN027
  • 050600Z VRB10KT 2500 +TSRA SCT012CB BKN018 OVC025 11/10 Q1004 BECMG 11012KT TEMPO 3000
  • 050530Z 11018G29KT 090V150 8000 RA FEW015 BKN020 OVC030 12/10 Q1002 NOSIG

TAF AMD TAF LDSP
Valid from the 05 at 07:00 until the 06 at 06:00 UTC


050731Z 0507/0606 10008KT 9999 BKN020 TX14/0512Z TN07/0605Z
TEMPO 0507/0517 12015KT 4000 RA
PROB40
TEMPO 0507/0515 15018G30KT 3000 +TSRA SCT017CB BKN020
BECMG 0513/0515 31018KT
BECMG 0516/0518 31008KT



MET'MAP, your aeronautical weather chart ! - Copyright ORBIFLY December 2007 - Disclaimer

ORBIFLY MET'MAP TEAM :

Programming & Development : Alexandra Zaïnal
Concept & original design : Baudouin d'Aumeries
Assistance for programming : Marc-Olivier Méhu
Technical & hardware support : Manuel Goepfert

Contact : metmap@orbifly.com




SOURCES & CREDITS :

   NOAA